createdAt,value
2023-01-12T00:02:21.031Z,6.13
2023-01-12T00:04:48.421Z,6.20
2023-01-12T00:07:16.861Z,6.24
2023-01-12T00:09:45.040Z,6.29
2023-01-12T00:12:12.648Z,6.32
2023-01-12T00:14:40.250Z,6.34
2023-01-12T00:17:09.134Z,6.34
2023-01-12T00:19:38.874Z,6.31
2023-01-12T00:22:12.098Z,6.30
2023-01-12T00:24:42.440Z,6.30
2023-01-12T00:27:12.385Z,6.29
2023-01-12T00:29:42.184Z,6.27
2023-01-12T00:32:14.870Z,6.26
2023-01-12T00:34:42.785Z,6.27
2023-01-12T00:37:10.792Z,6.28
2023-01-12T00:39:40.757Z,6.31
2023-01-12T00:42:30.768Z,6.36
2023-01-12T00:45:16.464Z,6.41
2023-01-12T00:47:43.896Z,6.46
2023-01-12T00:50:11.260Z,6.50
2023-01-12T00:52:38.541Z,6.55
2023-01-12T00:55:06.614Z,6.58
2023-01-12T00:57:34.836Z,6.60
2023-01-12T01:00:02.297Z,6.64
2023-01-12T01:02:29.873Z,6.66
2023-01-12T01:04:57.504Z,6.65
2023-01-12T01:07:25.134Z,6.66
2023-01-12T01:09:52.623Z,6.63
2023-01-12T01:12:20.196Z,6.59
2023-01-12T01:14:48.805Z,6.57
2023-01-12T01:17:16.120Z,6.55
2023-01-12T01:19:43.790Z,6.52
2023-01-12T01:22:13.264Z,6.50
2023-01-12T01:24:41.617Z,6.49
2023-01-12T01:27:09.165Z,6.47
2023-01-12T01:29:36.983Z,6.44
2023-01-12T01:32:04.753Z,6.43
2023-01-12T01:34:32.573Z,6.42
2023-01-12T01:36:59.815Z,6.40
2023-01-12T01:39:27.448Z,6.42
2023-01-12T01:41:54.948Z,6.43
2023-01-12T01:44:31.422Z,6.46
2023-01-12T01:47:02.640Z,6.50
2023-01-12T01:49:42.601Z,6.50
2023-01-12T01:52:50.232Z,6.51
2023-01-12T01:55:23.993Z,6.54
2023-01-12T01:57:57.491Z,6.55
2023-01-12T02:00:25.381Z,6.57
2023-01-12T02:02:54.517Z,6.60
2023-01-12T02:05:25.916Z,6.60
2023-01-12T02:07:55.699Z,6.62
2023-01-12T02:10:23.125Z,6.61
2023-01-12T02:13:23.232Z,6.62
2023-01-12T02:16:25.956Z,6.61
2023-01-12T02:19:12.043Z,6.62
2023-01-12T02:22:01.102Z,6.61
2023-01-12T02:24:53.079Z,6.59
2023-01-12T02:27:52.525Z,6.59
2023-01-12T02:30:34.903Z,6.59
2023-01-12T02:33:27.929Z,6.58
2023-01-12T02:36:12.475Z,6.60
2023-01-12T02:38:57.480Z,6.61
2023-01-12T02:42:11.317Z,6.64
2023-01-12T02:44:53.972Z,6.68
2023-01-12T02:47:34.709Z,6.70
2023-01-12T02:50:04.163Z,6.72
2023-01-12T02:52:33.709Z,6.75
2023-01-12T02:55:03.744Z,6.77
2023-01-12T02:57:33.626Z,6.81
2023-01-12T03:00:04.976Z,6.83
2023-01-12T03:02:34.227Z,6.86
2023-01-12T03:05:01.499Z,6.87
2023-01-12T03:07:28.813Z,6.90
2023-01-12T03:10:12.530Z,6.91
2023-01-12T03:12:41.923Z,6.93
2023-01-12T03:15:12.369Z,6.95
2023-01-12T03:17:46.768Z,6.97
2023-01-12T03:20:25.642Z,6.98
2023-01-12T03:23:00.993Z,6.99
2023-01-12T03:25:31.776Z,6.98
2023-01-12T03:27:59.740Z,6.99
2023-01-12T03:30:43.983Z,7.00
2023-01-12T03:33:12.976Z,7.00
2023-01-12T03:36:16.110Z,7.01
2023-01-12T03:38:52.943Z,7.02
2023-01-12T03:41:36.674Z,7.04
2023-01-12T03:44:07.806Z,7.05
2023-01-12T03:46:53.454Z,7.06
2023-01-12T03:49:47.382Z,7.06
2023-01-12T03:52:18.292Z,7.08
2023-01-12T03:54:47.733Z,7.09
2023-01-12T03:57:17.066Z,7.12
2023-01-12T03:59:44.590Z,7.14
2023-01-12T04:02:12.685Z,7.16
2023-01-12T04:04:40.247Z,7.16
2023-01-12T04:07:07.675Z,7.17
2023-01-12T04:09:35.223Z,7.18
2023-01-12T04:12:11.818Z,7.19
2023-01-12T04:14:47.641Z,7.20
2023-01-12T04:17:16.222Z,7.21
2023-01-12T04:19:43.519Z,7.23
2023-01-12T04:22:34.151Z,7.25
2023-01-12T04:25:02.107Z,7.26
2023-01-12T04:27:29.559Z,7.27
2023-01-12T04:29:57.536Z,7.27
2023-01-12T04:32:25.509Z,7.27
2023-01-12T04:34:52.814Z,7.28
2023-01-12T04:37:20.256Z,7.29
2023-01-12T04:39:47.540Z,7.29
2023-01-12T04:42:34.373Z,7.29
2023-01-12T04:45:01.704Z,7.30
2023-01-12T04:47:30.195Z,7.30
2023-01-12T04:49:57.361Z,7.29
2023-01-12T04:52:24.749Z,7.31
2023-01-12T04:54:52.234Z,7.31
2023-01-12T04:57:19.612Z,7.32
2023-01-12T04:59:46.933Z,7.33
2023-01-12T05:02:14.273Z,7.33
2023-01-12T05:04:42.915Z,7.31
2023-01-12T05:07:10.320Z,7.30
2023-01-12T05:10:01.623Z,7.30
2023-01-12T05:12:29.066Z,7.31
2023-01-12T05:14:56.479Z,7.31
2023-01-12T05:17:23.959Z,7.30
2023-01-12T05:19:51.314Z,7.31
2023-01-12T05:22:18.680Z,7.31
2023-01-12T05:24:46.021Z,7.29
2023-01-12T05:27:13.305Z,7.28
2023-01-12T05:29:40.687Z,7.28
2023-01-12T05:32:07.955Z,7.29
2023-01-12T05:34:35.267Z,7.26
2023-01-12T05:37:02.723Z,7.28
2023-01-12T05:39:30.236Z,7.27
2023-01-12T05:42:16.464Z,7.25
2023-01-12T05:44:43.961Z,7.25
2023-01-12T05:47:11.249Z,7.23
2023-01-12T05:49:39.434Z,7.23
2023-01-12T05:52:06.993Z,7.24
2023-01-12T05:54:34.398Z,7.23
2023-01-12T05:57:01.735Z,7.22
2023-01-12T05:59:29.323Z,7.21
2023-01-12T06:01:56.578Z,7.21
2023-01-12T06:04:25.392Z,7.20
2023-01-12T06:06:53.276Z,7.21
2023-01-12T06:09:20.519Z,7.19
2023-01-12T06:12:06.477Z,7.18
2023-01-12T06:14:33.900Z,7.19
2023-01-12T06:17:01.499Z,7.19
2023-01-12T06:19:29.153Z,7.19
2023-01-12T06:21:59.895Z,7.20
2023-01-12T06:24:28.375Z,7.21
2023-01-12T06:26:55.938Z,7.19
2023-01-12T06:29:23.239Z,7.21
2023-01-12T06:31:50.680Z,7.23
2023-01-12T06:34:17.993Z,7.25
2023-01-12T06:36:45.349Z,7.26
2023-01-12T06:39:13.250Z,7.27
2023-01-12T06:41:59.004Z,7.29
2023-01-12T06:44:26.761Z,7.31
2023-01-12T06:46:54.131Z,7.33
2023-01-12T06:49:21.470Z,7.35
2023-01-12T06:51:51.821Z,7.38
2023-01-12T06:54:19.139Z,7.42
2023-01-12T06:56:49.517Z,7.45
2023-01-12T06:59:16.971Z,7.48
2023-01-12T07:01:44.448Z,7.50
2023-01-12T07:04:12.004Z,7.51
2023-01-12T07:06:39.379Z,7.53
2023-01-12T07:09:06.803Z,7.54
2023-01-12T07:11:34.090Z,7.58
2023-01-12T07:14:02.679Z,7.60
2023-01-12T07:16:30.000Z,7.62
2023-01-12T07:18:58.773Z,7.66
2023-01-12T07:21:26.489Z,7.68
2023-01-12T07:23:54.048Z,7.71
2023-01-12T07:26:21.336Z,7.75
2023-01-12T07:28:48.688Z,7.81
2023-01-12T07:31:16.008Z,7.86
2023-01-12T07:33:43.355Z,7.90
2023-01-12T07:36:10.699Z,7.95
2023-01-12T07:38:38.285Z,8.03
2023-01-12T07:41:05.611Z,8.07
2023-01-12T07:43:34.198Z,8.13
2023-01-12T07:46:01.634Z,8.17
2023-01-12T07:48:28.999Z,8.23
2023-01-12T07:50:58.986Z,8.27
2023-01-12T07:53:27.938Z,8.32
2023-01-12T07:55:55.330Z,8.36
2023-01-12T07:58:22.567Z,8.39
2023-01-12T08:00:50.173Z,8.44
2023-01-12T08:03:17.654Z,8.47
2023-01-12T08:05:44.952Z,8.51
2023-01-12T08:08:12.349Z,8.55
2023-01-12T08:10:41.014Z,8.58
2023-01-12T08:13:08.331Z,8.63
2023-01-12T08:15:43.397Z,8.67
2023-01-12T08:18:31.937Z,8.73
2023-01-12T08:21:04.466Z,8.77
2023-01-12T08:23:37.491Z,8.82
2023-01-12T08:26:10.958Z,8.88
2023-01-12T08:28:43.509Z,8.93
2023-01-12T08:31:14.780Z,9.01
2023-01-12T08:33:43.509Z,9.05
2023-01-12T08:36:14.634Z,9.12
2023-01-12T08:38:42.336Z,9.17
2023-01-12T08:41:28.302Z,9.22
2023-01-12T08:44:27.796Z,9.28
2023-01-12T08:46:55.325Z,9.34
2023-01-12T08:49:25.539Z,9.40
2023-01-12T08:51:53.203Z,9.44
2023-01-12T08:54:24.173Z,9.47
2023-01-12T08:56:51.545Z,9.49
2023-01-12T08:59:19.803Z,9.51
2023-01-12T09:01:47.580Z,9.53
2023-01-12T09:04:15.397Z,9.54
2023-01-12T09:06:44.669Z,9.56
2023-01-12T09:09:15.564Z,9.57
2023-01-12T09:11:44.993Z,9.57
2023-01-12T09:14:14.080Z,9.60
2023-01-12T09:16:42.544Z,9.62
2023-01-12T09:19:10.498Z,9.66
2023-01-12T09:21:41.217Z,9.69
2023-01-12T09:24:09.538Z,9.69
2023-01-12T09:26:42.387Z,9.70
2023-01-12T09:29:11.964Z,9.69
2023-01-12T09:31:41.868Z,9.68
2023-01-12T09:34:09.354Z,9.66
2023-01-12T09:36:39.686Z,9.65
2023-01-12T09:39:10.438Z,9.64
2023-01-12T09:42:09.035Z,9.64
2023-01-12T09:45:08.602Z,9.65
2023-01-12T09:47:48.196Z,9.68
2023-01-12T09:50:29.193Z,9.71
2023-01-12T09:53:16.814Z,9.75
2023-01-12T09:55:54.827Z,9.78
2023-01-12T09:58:41.303Z,9.79
2023-01-12T10:01:24.068Z,9.80
2023-01-12T10:03:55.712Z,9.80
2023-01-12T10:06:23.142Z,9.78
2023-01-12T10:08:56.066Z,9.75
2023-01-12T10:11:32.853Z,9.71
2023-01-12T10:14:38.200Z,9.68
2023-01-12T10:17:20.168Z,9.66
2023-01-12T10:20:08.574Z,9.63
2023-01-12T10:22:48.052Z,9.66
2023-01-12T10:25:24.550Z,9.68
2023-01-12T10:27:54.909Z,9.70
2023-01-12T10:30:30.793Z,9.69
2023-01-12T10:33:20.142Z,9.71
2023-01-12T10:35:59.643Z,9.73
2023-01-12T10:38:35.127Z,9.75
2023-01-12T10:41:24.349Z,9.80
2023-01-12T10:44:15.349Z,9.82
2023-01-12T10:46:42.967Z,9.85
2023-01-12T10:49:24.637Z,9.86
2023-01-12T10:51:56.903Z,9.86
2023-01-12T10:54:28.081Z,9.90
2023-01-12T10:57:18.820Z,9.88
2023-01-12T10:59:54.626Z,9.90
2023-01-12T11:02:24.562Z,9.92
2023-01-12T11:04:53.667Z,9.93
2023-01-12T11:07:29.346Z,9.97
2023-01-12T11:10:19.267Z,10.02
2023-01-12T11:12:58.856Z,10.06
2023-01-12T11:15:28.360Z,10.08
2023-01-12T11:18:54.339Z,10.09
2023-01-12T11:21:29.192Z,10.10
2023-01-12T11:24:11.662Z,10.10
2023-01-12T11:26:55.311Z,10.08
2023-01-12T11:29:35.984Z,10.06
2023-01-12T11:32:10.429Z,10.05
2023-01-12T11:34:53.672Z,10.05
2023-01-12T11:37:21.114Z,10.02
2023-01-12T11:39:58.043Z,10.01
2023-01-12T11:42:48.883Z,10.01
2023-01-12T11:45:20.113Z,10.00
2023-01-12T11:48:03.156Z,10.00
2023-01-12T11:50:36.598Z,9.99
2023-01-12T11:53:06.458Z,9.99
2023-01-12T11:55:53.495Z,9.97
2023-01-12T11:58:35.434Z,9.93
2023-01-12T12:01:16.460Z,9.91
2023-01-12T12:03:57.414Z,9.89
2023-01-12T12:06:43.613Z,9.85
2023-01-12T12:09:52.867Z,9.81
2023-01-12T12:12:38.671Z,9.78
2023-01-12T12:15:25.877Z,9.76
2023-01-12T12:18:26.787Z,9.75
2023-01-12T12:21:21.070Z,9.73
2023-01-12T12:24:13.239Z,9.74
2023-01-12T12:26:51.408Z,9.74
2023-01-12T12:29:56.334Z,9.76
2023-01-12T12:32:35.396Z,9.78
2023-01-12T12:35:41.479Z,9.82
2023-01-12T12:38:49.424Z,9.85
2023-01-12T12:41:49.502Z,9.87
2023-01-12T12:45:04.433Z,9.93
2023-01-12T12:48:02.721Z,10.03
2023-01-12T12:50:32.807Z,10.13
2023-01-12T12:53:33.010Z,10.23
2023-01-12T12:56:12.640Z,10.30
2023-01-12T12:58:41.798Z,10.30
2023-01-12T13:01:37.994Z,10.29
2023-01-12T13:04:07.923Z,10.29
2023-01-12T13:06:38.473Z,10.30
2023-01-12T13:09:11.720Z,10.31
2023-01-12T13:11:57.449Z,10.30
2023-01-12T13:14:34.619Z,10.26
2023-01-12T13:17:22.227Z,10.24
2023-01-12T13:19:53.407Z,10.22
2023-01-12T13:22:32.984Z,10.20
2023-01-12T13:25:01.601Z,10.17
2023-01-12T13:27:48.121Z,10.15
2023-01-12T13:30:30.838Z,10.14
2023-01-12T13:33:24.726Z,10.13
2023-01-12T13:35:52.180Z,10.12
2023-01-12T13:38:33.728Z,10.13
2023-01-12T13:41:47.476Z,10.13
2023-01-12T13:44:43.328Z,10.13
2023-01-12T13:47:19.291Z,10.14
2023-01-12T13:49:51.403Z,10.14
2023-01-12T13:52:30.410Z,10.14
2023-01-12T13:54:59.608Z,10.15
2023-01-12T13:57:29.716Z,10.17
2023-01-12T13:59:59.607Z,10.17
2023-01-12T14:02:32.757Z,10.17
2023-01-12T14:05:24.641Z,10.18
2023-01-12T14:08:15.014Z,10.19
2023-01-12T14:11:16.900Z,10.18
2023-01-12T14:14:28.449Z,10.19
2023-01-12T14:17:16.257Z,10.18
2023-01-12T14:19:51.555Z,10.18
2023-01-12T14:22:20.919Z,10.17
2023-01-12T14:24:48.448Z,10.18
2023-01-12T14:27:27.590Z,10.19
2023-01-12T14:29:55.813Z,10.20
2023-01-12T14:32:24.648Z,10.20
2023-01-12T14:34:55.643Z,10.20
2023-01-12T14:37:29.651Z,10.21
2023-01-12T14:39:57.400Z,10.19
2023-01-12T14:42:43.347Z,10.20
2023-01-12T14:45:38.182Z,10.19
2023-01-12T14:48:22.661Z,10.16
2023-01-12T14:51:02.263Z,10.14
2023-01-12T14:53:38.582Z,10.12
2023-01-12T14:56:17.988Z,10.09
2023-01-12T14:58:46.767Z,10.07
2023-01-12T15:01:31.611Z,10.05
2023-01-12T15:03:59.875Z,10.03
2023-01-12T15:06:27.689Z,10.02
2023-01-12T15:09:01.090Z,10.01
2023-01-12T15:11:31.201Z,10.01
2023-01-12T15:14:03.490Z,10.00
2023-01-12T15:16:49.291Z,9.98
2023-01-12T15:19:35.262Z,9.96
2023-01-12T15:22:21.285Z,9.92
2023-01-12T15:25:07.183Z,9.88
2023-01-12T15:27:40.781Z,9.84
2023-01-12T15:30:11.435Z,9.81
2023-01-12T15:32:47.701Z,9.78
2023-01-12T15:35:26.313Z,9.75
2023-01-12T15:37:56.179Z,9.72
2023-01-12T15:40:25.377Z,9.70
2023-01-12T15:42:53.619Z,9.69
2023-01-12T15:45:20.960Z,9.67
2023-01-12T15:47:50.573Z,9.67
2023-01-12T15:50:17.854Z,9.66
2023-01-12T15:52:45.425Z,9.64
2023-01-12T15:55:18.448Z,9.63
2023-01-12T15:57:47.551Z,9.62
2023-01-12T16:00:19.279Z,9.61
2023-01-12T16:02:49.921Z,9.60
2023-01-12T16:05:20.110Z,9.60
2023-01-12T16:07:48.901Z,9.59
2023-01-12T16:10:17.195Z,9.57
2023-01-12T16:12:45.784Z,9.57
2023-01-12T16:15:24.441Z,9.57
2023-01-12T16:17:52.706Z,9.56
2023-01-12T16:20:20.435Z,9.55
2023-01-12T16:22:47.883Z,9.55
2023-01-12T16:25:15.670Z,9.54
2023-01-12T16:27:43.463Z,9.53
2023-01-12T16:30:15.196Z,9.53
2023-01-12T16:32:47.169Z,9.52
2023-01-12T16:35:15.786Z,9.53
2023-01-12T16:37:44.602Z,9.52
2023-01-12T16:40:12.648Z,9.51
2023-01-12T16:42:39.945Z,9.52
2023-01-12T16:45:08.017Z,9.54
2023-01-12T16:47:35.967Z,9.56
2023-01-12T16:50:06.623Z,9.58
2023-01-12T16:52:34.605Z,9.58
2023-01-12T16:55:02.029Z,9.60
2023-01-12T16:57:29.404Z,9.58
2023-01-12T16:59:56.971Z,9.57
2023-01-12T17:02:24.684Z,9.56
2023-01-12T17:04:52.986Z,9.54
2023-01-12T17:07:20.514Z,9.55
2023-01-12T17:09:48.108Z,9.54
2023-01-12T17:12:15.442Z,9.55
2023-01-12T17:14:42.913Z,9.54
2023-01-12T17:17:11.715Z,9.54
2023-01-12T17:19:42.558Z,9.53
2023-01-12T17:22:11.691Z,9.52
2023-01-12T17:24:40.438Z,9.53
2023-01-12T17:27:10.106Z,9.52
2023-01-12T17:29:38.029Z,9.50
2023-01-12T17:32:07.088Z,9.49
2023-01-12T17:34:39.314Z,9.46
2023-01-12T17:37:10.557Z,9.46
2023-01-12T17:39:43.053Z,9.45
2023-01-12T17:42:31.278Z,9.44
2023-01-12T17:45:00.722Z,9.44
2023-01-12T17:47:28.100Z,9.44
2023-01-12T17:49:55.700Z,9.43
2023-01-12T17:52:23.129Z,9.43
2023-01-12T17:54:51.720Z,9.43
2023-01-12T17:57:19.099Z,9.43
2023-01-12T17:59:46.544Z,9.43
2023-01-12T18:02:15.276Z,9.44
2023-01-12T18:04:42.686Z,9.43
2023-01-12T18:07:10.030Z,9.44
2023-01-12T18:09:38.037Z,9.46
2023-01-12T18:12:05.691Z,9.47
2023-01-12T18:14:34.462Z,9.47
2023-01-12T18:17:02.311Z,9.49
2023-01-12T18:19:30.062Z,9.49
2023-01-12T18:21:57.499Z,9.50
2023-01-12T18:24:30.387Z,9.51
2023-01-12T18:26:59.495Z,9.51
2023-01-12T18:29:26.991Z,9.54
2023-01-12T18:31:54.935Z,9.57
2023-01-12T18:34:22.363Z,9.61
2023-01-12T18:36:49.749Z,9.65
2023-01-12T18:39:19.306Z,9.69
2023-01-12T18:42:05.687Z,9.71
2023-01-12T18:44:40.418Z,9.75
2023-01-12T18:47:26.486Z,9.73
2023-01-12T18:49:57.835Z,9.77
2023-01-12T18:52:45.342Z,9.76
2023-01-12T18:55:12.809Z,9.79
2023-01-12T18:57:41.229Z,9.82
2023-01-12T19:00:11.946Z,9.82
2023-01-12T19:02:41.500Z,9.81
2023-01-12T19:05:23.278Z,9.85
2023-01-12T19:07:50.767Z,9.86
2023-01-12T19:10:18.388Z,9.87
2023-01-12T19:12:46.098Z,9.86
2023-01-12T19:15:32.620Z,9.88
2023-01-12T19:18:00.692Z,9.88
2023-01-12T19:20:31.648Z,9.89
2023-01-12T19:23:17.802Z,9.90
2023-01-12T19:26:04.006Z,9.88
2023-01-12T19:28:38.088Z,9.88
2023-01-12T19:31:07.874Z,9.87
2023-01-12T19:33:35.548Z,9.87
2023-01-12T19:36:08.397Z,9.87
2023-01-12T19:38:36.528Z,9.86
2023-01-12T19:41:14.424Z,9.86
2023-01-12T19:43:45.427Z,9.86
2023-01-12T19:46:15.721Z,9.85
2023-01-12T19:48:44.893Z,9.87
2023-01-12T19:51:12.202Z,9.88
2023-01-12T19:53:40.490Z,9.88
2023-01-12T19:56:12.635Z,9.89
2023-01-12T19:58:40.646Z,9.89
2023-01-12T20:01:08.512Z,9.91
2023-01-12T20:03:38.331Z,9.92
2023-01-12T20:06:06.896Z,9.92
2023-01-12T20:08:34.341Z,9.93
2023-01-12T20:11:04.964Z,9.94
2023-01-12T20:13:33.102Z,9.93
2023-01-12T20:16:09.164Z,9.91
2023-01-12T20:18:37.770Z,9.92
2023-01-12T20:21:09.230Z,9.90
2023-01-12T20:23:36.821Z,9.90
2023-01-12T20:26:09.272Z,9.90
2023-01-12T20:28:36.778Z,9.91
2023-01-12T20:31:17.072Z,9.92
2023-01-12T20:33:44.501Z,9.92
2023-01-12T20:36:14.583Z,9.91
2023-01-12T20:38:47.154Z,9.92
2023-01-12T20:41:15.119Z,9.91
2023-01-12T20:43:42.418Z,9.91
2023-01-12T20:46:13.107Z,9.90
2023-01-12T20:48:41.497Z,9.88
2023-01-12T20:51:14.101Z,9.87
2023-01-12T20:53:41.975Z,9.84
2023-01-12T20:56:10.121Z,9.83
2023-01-12T20:58:37.672Z,9.81
2023-01-12T21:01:13.531Z,9.81
2023-01-12T21:03:50.235Z,9.82
2023-01-12T21:06:21.057Z,9.82
2023-01-12T21:08:49.010Z,9.83
2023-01-12T21:11:19.400Z,9.83
2023-01-12T21:13:47.145Z,9.81
2023-01-12T21:16:18.387Z,9.81
2023-01-12T21:18:47.308Z,9.82
2023-01-12T21:21:15.346Z,9.82
2023-01-12T21:23:42.896Z,9.81
2023-01-12T21:26:11.738Z,9.80
2023-01-12T21:28:40.158Z,9.79
2023-01-12T21:31:09.113Z,9.78
2023-01-12T21:33:36.759Z,9.75
2023-01-12T21:36:04.309Z,9.73
2023-01-12T21:38:32.705Z,9.73
2023-01-12T21:41:04.912Z,9.73
2023-01-12T21:43:33.784Z,9.75
2023-01-12T21:46:09.860Z,9.72
2023-01-12T21:48:37.603Z,9.72
2023-01-12T21:51:07.234Z,9.71
2023-01-12T21:53:35.302Z,9.70
2023-01-12T21:56:04.845Z,9.70
2023-01-12T21:58:36.501Z,9.69
2023-01-12T22:01:08.729Z,9.70
2023-01-12T22:03:36.406Z,9.70
2023-01-12T22:06:07.623Z,9.69
2023-01-12T22:08:36.979Z,9.70
2023-01-12T22:11:15.917Z,9.72
2023-01-12T22:13:44.307Z,9.71
2023-01-12T22:16:14.072Z,9.69
2023-01-12T22:18:46.206Z,9.67
2023-01-12T22:21:13.805Z,9.63
2023-01-12T22:23:41.419Z,9.60
2023-01-12T22:26:11.430Z,9.54
2023-01-12T22:28:40.857Z,9.52
2023-01-12T22:31:16.898Z,9.49
2023-01-12T22:33:57.721Z,9.48
2023-01-12T22:36:25.087Z,9.45
2023-01-12T22:38:52.862Z,9.43
2023-01-12T22:41:22.332Z,9.44
2023-01-12T22:43:49.626Z,9.42
2023-01-12T22:46:22.668Z,9.39
2023-01-12T22:49:01.992Z,9.39
2023-01-12T22:51:29.739Z,9.35
2023-01-12T22:53:57.870Z,9.32
2023-01-12T22:56:25.674Z,9.28
2023-01-12T22:58:55.333Z,9.25
2023-01-12T23:01:25.438Z,9.23
2023-01-12T23:03:57.149Z,9.22
2023-01-12T23:06:26.760Z,9.18
2023-01-12T23:08:54.125Z,9.17
2023-01-12T23:11:25.055Z,9.15
2023-01-12T23:13:57.015Z,9.17
2023-01-12T23:16:26.493Z,9.18
2023-01-12T23:18:55.365Z,9.20
2023-01-12T23:21:48.759Z,9.21
2023-01-12T23:24:16.138Z,9.18
2023-01-12T23:26:43.593Z,9.14
2023-01-12T23:29:10.909Z,9.09
2023-01-12T23:31:38.309Z,9.05
2023-01-12T23:34:05.622Z,8.98
2023-01-12T23:36:33.835Z,8.94
2023-01-12T23:39:04.063Z,8.89
2023-01-12T23:41:34.101Z,8.85
2023-01-12T23:44:04.432Z,8.83
2023-01-12T23:46:35.542Z,8.81
2023-01-12T23:49:03.993Z,8.80
2023-01-12T23:51:31.964Z,8.74
2023-01-12T23:54:01.465Z,8.72
2023-01-12T23:56:30.698Z,8.68
2023-01-12T23:58:58.631Z,8.65
